Time;durP1;ratioP1;P1;durP2;ratioP2;P2;SDS_P1;SDS_P2;PMS_P1;PMS_P2;Temp;Humidity;BMP_temperature;BMP_pressure;BME280_temperature;BME280_humidity;BME280_pressure;Samples;Min_cycle;Max_cycle;Signal;HPM_P1;HPM_P2
2023/10/15 00:01:46;;;;;;;7.40;1.67;;;10.10;41.30;;;;;;5002922;28;47285;-83
2023/10/15 00:04:15;;;;;;;7.10;2.03;;;9.90;42.60;;;;;;5001521;28;45788;-82
2023/10/15 00:06:40;;;;;;;5.73;2.10;;;9.70;42.40;;;;;;5002258;28;45909;-84
2023/10/15 00:09:07;;;;;;;5.30;1.97;;;9.70;43.50;;;;;;5002548;28;45874;-84
2023/10/15 00:11:33;;;;;;;11.23;2.77;;;9.60;43.60;;;;;;4998464;28;46500;-82
2023/10/15 00:13:58;;;;;;;12.07;2.57;;;9.50;43.50;;;;;;5002331;28;46435;-83
2023/10/15 00:16:25;;;;;;;4.37;2.00;;;9.50;42.20;;;;;;4999759;28;46655;-82
2023/10/15 00:18:51;;;;;;;9.83;3.43;;;9.50;43.30;;;;;;5004305;28;46472;-84
2023/10/15 00:21:16;;;;;;;10.70;2.60;;;9.60;43.00;;;;;;5004538;28;46866;-84
2023/10/15 00:23:44;;;;;;;7.67;2.30;;;9.60;42.60;;;;;;5004717;28;46501;-83
2023/10/15 00:26:16;;;;;;;6.50;2.20;;;9.70;42.30;;;;;;4997801;28;46339;-82
2023/10/15 00:28:45;;;;;;;13.50;2.57;;;9.60;41.20;;;;;;4997885;28;46448;-82
2023/10/15 00:31:14;;;;;;;5.23;2.00;;;9.60;42.50;;;;;;4999590;28;46468;-83
2023/10/15 00:33:42;;;;;;;9.27;2.70;;;9.60;42.60;;;;;;4999360;28;46788;-80
2023/10/15 00:36:18;;;;;;;8.00;2.90;;;9.60;43.10;;;;;;5000919;28;46536;-83
2023/10/15 00:38:44;;;;;;;7.33;2.17;;;9.40;42.20;;;;;;5000608;28;46482;-82
2023/10/15 00:41:13;;;;;;;10.13;2.40;;;9.40;43.30;;;;;;5000046;28;46476;-82
2023/10/15 00:43:51;;;;;;;6.83;2.23;;;9.40;43.30;;;;;;4999003;28;46868;-82
2023/10/15 00:46:17;;;;;;;8.53;2.30;;;9.50;43.10;;;;;;4999176;28;46481;-82
2023/10/15 00:48:43;;;;;;;13.93;2.80;;;9.50;41.60;;;;;;4999326;28;46357;-83
2023/10/15 00:51:13;;;;;;;14.17;2.33;;;9.60;42.70;;;;;;5000527;28;46738;-83
2023/10/15 00:53:54;;;;;;;9.10;2.50;;;9.60;42.60;;;;;;4998348;28;46522;-83
2023/10/15 00:56:25;;;;;;;10.87;2.20;;;9.60;42.50;;;;;;5001443;28;46649;-83
2023/10/15 01:03:53;;;;;;;6.63;1.97;;;9.50;43.00;;;;;;5000675;28;46462;-81
2023/10/15 01:06:30;;;;;;;8.07;2.10;;;9.40;43.30;;;;;;4995888;28;46373;-82
2023/10/15 01:08:58;;;;;;;10.33;2.30;;;9.20;43.70;;;;;;5000912;28;46427;-82
2023/10/15 01:11:28;;;;;;;7.40;2.23;;;9.00;44.30;;;;;;4998265;28;49292;-82
2023/10/15 01:13:55;;;;;;;7.47;2.07;;;8.90;44.60;;;;;;5000270;28;46389;-81
2023/10/15 01:16:22;;;;;;;5.37;1.87;;;8.90;44.70;;;;;;5000477;28;46646;-81
2023/10/15 01:21:42;;;;;;;8.33;2.47;;;8.80;44.70;;;;;;5000206;28;46431;-83
2023/10/15 01:24:08;;;;;;;10.63;2.00;;;8.80;44.60;;;;;;4997144;28;46516;-81
2023/10/15 01:26:36;;;;;;;4.57;1.93;;;8.80;43.50;;;;;;4999802;28;46436;-82
2023/10/15 01:29:05;;;;;;;10.47;2.30;;;8.80;44.60;;;;;;5003505;28;46518;-82
2023/10/15 01:31:39;;;;;;;9.43;1.80;;;8.80;44.10;;;;;;5000977;28;46395;-81
2023/10/15 01:34:09;;;;;;;7.17;2.73;;;8.80;44.00;;;;;;5001145;28;46219;-82
2023/10/15 01:36:38;;;;;;;4.27;2.23;;;8.90;43.00;;;;;;4996821;28;46764;-82
2023/10/15 01:39:10;;;;;;;5.87;1.80;;;8.90;44.00;;;;;;5002322;28;46588;-83
2023/10/15 01:41:39;;;;;;;13.20;2.60;;;8.80;44.00;;;;;;5000660;28;46514;-82
2023/10/15 01:44:10;;;;;;;12.23;2.20;;;8.80;44.30;;;;;;5001330;28;46391;-83
2023/10/15 01:49:16;;;;;;;7.57;2.30;;;8.80;44.00;;;;;;4992650;28;46454;-83
2023/10/15 01:51:41;;;;;;;8.17;1.97;;;8.80;44.00;;;;;;5000895;28;46894;-83
2023/10/15 01:54:10;;;;;;;8.03;2.00;;;8.80;44.10;;;;;;5002620;28;46471;-80
2023/10/15 01:56:37;;;;;;;7.60;2.17;;;8.60;43.40;;;;;;5005298;28;46463;-82
2023/10/15 01:59:08;;;;;;;8.63;2.17;;;8.70;44.50;;;;;;5002157;28;46701;-83
2023/10/15 02:01:37;;;;;;;7.20;1.70;;;8.60;44.60;;;;;;5000042;28;46856;-82
2023/10/15 02:04:04;;;;;;;6.20;2.10;;;8.50;46.00;;;;;;5001048;28;46412;-82
2023/10/15 02:06:35;;;;;;;7.43;2.10;;;8.60;43.40;;;;;;5002730;28;46821;-82
2023/10/15 02:09:07;;;;;;;6.87;2.00;;;8.60;44.40;;;;;;5004061;28;46492;-84
2023/10/15 02:11:42;;;;;;;13.53;1.80;;;8.60;44.20;;;;;;5000022;28;48550;-82
2023/10/15 02:14:09;;;;;;;9.77;2.23;;;8.60;44.40;;;;;;5003425;28;46424;-84
2023/10/15 02:16:37;;;;;;;5.50;2.23;;;8.40;44.00;;;;;;5002105;28;46854;-82
2023/10/15 02:19:07;;;;;;;10.87;1.97;;;8.40;45.00;;;;;;5002306;28;46014;-83
2023/10/15 02:21:34;;;;;;;5.43;2.00;;;8.30;45.40;;;;;;5000758;28;47980;-80
2023/10/15 02:24:07;;;;;;;7.33;2.60;;;8.20;45.80;;;;;;5002203;28;46578;-82
2023/10/15 02:26:32;;;;;;;4.00;1.73;;;8.20;44.80;;;;;;5000545;28;46616;-79
2023/10/15 02:29:07;;;;;;;11.00;2.03;;;8.20;45.90;;;;;;5002447;28;46616;-81
2023/10/15 02:31:41;;;;;;;7.10;2.60;;;8.30;45.50;;;;;;5001196;28;47316;-81
2023/10/15 02:34:11;;;;;;;6.00;2.30;;;8.30;45.40;;;;;;5000506;28;46473;-81
2023/10/15 02:36:40;;;;;;;13.60;2.23;;;8.20;44.40;;;;;;5001629;28;46458;-80
2023/10/15 02:39:05;;;;;;;10.00;1.97;;;8.20;45.50;;;;;;5001493;28;46868;-83
2023/10/15 02:41:31;;;;;;;9.33;2.50;;;8.30;45.50;;;;;;5003663;28;46447;-82
2023/10/15 02:43:57;;;;;;;6.83;2.03;;;8.30;45.40;;;;;;5001230;28;46552;-83
2023/10/15 02:48:57;;;;;;;7.40;1.90;;;8.40;44.90;;;;;;4998540;28;46681;-82
2023/10/15 02:51:26;;;;;;;9.67;2.30;;;8.40;44.80;;;;;;5002212;28;47073;-82
2023/10/15 02:53:54;;;;;;;7.20;1.90;;;8.40;44.90;;;;;;4997980;28;47307;-83
2023/10/15 02:56:20;;;;;;;11.30;1.73;;;8.30;45.00;;;;;;5001358;28;46400;-82
2023/10/15 02:58:46;;;;;;;7.47;1.83;;;8.30;44.00;;;;;;5000941;28;45856;-83
2023/10/15 03:01:23;;;;;;;5.47;1.60;;;8.20;45.50;;;;;;5001423;28;46451;-82
2023/10/15 03:03:52;;;;;;;10.73;2.60;;;8.20;45.40;;;;;;5001434;28;46729;-82
2023/10/15 03:06:25;;;;;;;5.33;1.87;;;8.10;45.50;;;;;;5003263;28;46695;-80
2023/10/15 03:08:51;;;;;;;10.13;2.30;;;8.10;46.00;;;;;;5001045;28;46458;-82
2023/10/15 03:11:22;;;;;;;13.80;2.77;;;8.00;46.00;;;;;;5000977;28;49430;-83
2023/10/15 03:13:54;;;;;;;13.80;2.37;;;8.10;46.00;;;;;;4997320;28;46336;-81
2023/10/15 03:16:22;;;;;;;9.17;2.10;;;8.10;45.80;;;;;;4999739;28;46670;-81
2023/10/15 03:18:49;;;;;;;6.47;1.80;;;8.10;44.70;;;;;;4999047;28;46478;-83
2023/10/15 03:21:25;;;;;;;3.40;1.47;;;8.20;45.60;;;;;;4999334;28;46711;-83
2023/10/15 03:23:57;;;;;;;8.30;1.83;;;8.10;45.50;;;;;;5001268;28;46851;-82
2023/10/15 03:26:31;;;;;;;12.70;2.20;;;8.20;45.60;;;;;;5001458;28;46814;-84
2023/10/15 03:29:00;;;;;;;12.70;2.60;;;8.20;45.50;;;;;;5001144;28;46447;-84
2023/10/15 03:31:32;;;;;;;8.63;1.93;;;8.30;45.30;;;;;;5000404;28;48211;-86
2023/10/15 03:36:43;;;;;;;11.40;2.70;;;8.60;43.60;;;;;;5014591;28;45776;-84
2023/10/15 03:39:15;;;;;;;6.83;2.00;;;8.50;43.40;;;;;;5002584;28;46483;-85
2023/10/15 03:41:49;;;;;;;6.50;1.83;;;8.60;44.40;;;;;;5002723;28;46439;-81
2023/10/15 03:44:23;;;;;;;10.97;2.13;;;8.60;44.40;;;;;;5001550;28;46490;-83
2023/10/15 03:46:48;;;;;;;7.17;1.80;;;8.60;44.50;;;;;;5005093;28;46384;-83
2023/10/15 03:49:14;;;;;;;11.33;2.00;;;8.60;44.60;;;;;;5002666;28;46499;-82
2023/10/15 03:51:47;;;;;;;6.10;1.70;;;8.50;44.70;;;;;;5002569;28;47268;-82
2023/10/15 03:54:13;;;;;;;4.10;1.30;;;8.60;44.80;;;;;;4999768;28;46370;-82
2023/10/15 03:56:43;;;;;;;4.90;1.73;;;8.60;43.90;;;;;;4999598;28;46563;-81
2023/10/15 03:59:11;;;;;;;7.87;1.80;;;8.60;45.00;;;;;;4998956;28;46471;-81
2023/10/15 04:01:43;;;;;;;11.53;2.20;;;8.60;45.00;;;;;;5000035;28;46963;-83
2023/10/15 04:04:09;;;;;;;6.33;2.40;;;8.50;45.20;;;;;;4999933;28;46537;-81
2023/10/15 04:06:35;;;;;;;5.27;2.50;;;8.60;44.50;;;;;;4998567;28;46863;-82
2023/10/15 04:11:31;;;;;;;5.30;2.10;;;8.60;45.20;;;;;;4997377;28;46767;-83
2023/10/15 04:14:08;;;;;;;7.33;1.90;;;8.70;45.20;;;;;;5000880;28;46779;-84
2023/10/15 04:16:34;;;;;;;8.60;2.30;;;8.70;44.10;;;;;;4989554;28;46486;-83
2023/10/15 04:19:00;;;;;;;7.30;1.97;;;8.70;45.20;;;;;;4999734;28;46497;-82
2023/10/15 04:21:26;;;;;;;3.73;2.10;;;8.70;45.10;;;;;;5003357;28;48416;-83
2023/10/15 04:23:56;;;;;;;8.67;2.10;;;8.70;45.00;;;;;;5000701;28;46623;-83
2023/10/15 04:26:26;;;;;;;5.97;1.77;;;8.80;45.00;;;;;;5000530;28;46558;-82
2023/10/15 04:28:53;;;;;;;7.00;1.80;;;8.90;44.90;;;;;;5000224;28;46410;-81
2023/10/15 04:31:29;;;;;;;7.43;2.20;;;8.90;44.70;;;;;;5000068;28;48143;-83
2023/10/15 04:33:55;;;;;;;6.30;1.77;;;8.90;44.60;;;;;;4999134;28;46860;-81
2023/10/15 04:36:22;;;;;;;10.07;3.70;;;8.80;44.70;;;;;;5000987;28;46495;-81
2023/10/15 04:38:53;;;;;;;5.10;1.80;;;8.80;44.80;;;;;;4996983;28;47003;-80
2023/10/15 04:41:23;;;;;;;14.47;2.20;;;8.80;44.70;;;;;;5000665;28;47309;-82
2023/10/15 04:43:49;;;;;;;15.00;1.87;;;8.90;45.00;;;;;;5002700;28;46476;-81
2023/10/15 04:46:18;;;;;;;7.20;1.90;;;8.90;45.00;;;;;;5001027;28;46486;-82
2023/10/15 04:48:46;;;;;;;5.60;1.60;;;8.90;45.00;;;;;;4999331;28;45939;-82
2023/10/15 04:51:15;;;;;;;6.60;2.40;;;8.80;45.00;;;;;;5000492;28;47355;-83
2023/10/15 04:53:50;;;;;;;8.33;1.90;;;8.80;45.10;;;;;;5000411;28;46705;-82
2023/10/15 04:56:16;;;;;;;10.10;2.10;;;8.90;45.20;;;;;;5003267;28;45918;-83
2023/10/15 04:58:42;;;;;;;10.53;2.90;;;8.90;45.20;;;;;;5001550;28;46920;-83
2023/10/15 05:01:09;;;;;;;6.47;1.90;;;8.80;45.20;;;;;;5003020;28;47179;-82
2023/10/15 05:03:38;;;;;;;7.07;1.97;;;8.90;45.30;;;;;;5002368;28;46543;-83
2023/10/15 05:06:10;;;;;;;7.80;2.10;;;8.90;45.30;;;;;;5001681;28;46354;-81
2023/10/15 05:08:37;;;;;;;7.17;1.97;;;8.90;45.20;;;;;;5001648;28;46736;-82
2023/10/15 05:11:04;;;;;;;7.43;1.70;;;8.90;45.00;;;;;;5001870;28;46428;-83
2023/10/15 05:13:31;;;;;;;9.13;2.00;;;8.90;46.20;;;;;;5004619;28;46455;-84
2023/10/15 05:15:57;;;;;;;6.70;1.80;;;9.00;45.10;;;;;;5006541;28;46688;-83
2023/10/15 05:18:23;;;;;;;5.93;2.13;;;9.00;45.00;;;;;;4997216;28;46703;-81
2023/10/15 05:20:49;;;;;;;5.90;1.80;;;9.00;44.90;;;;;;5012415;28;46509;-84
2023/10/15 05:23:16;;;;;;;9.83;1.77;;;9.10;44.80;;;;;;5011768;28;45884;-83
2023/10/15 05:25:42;;;;;;;11.17;2.20;;;9.10;44.60;;;;;;5004625;28;46691;-83
2023/10/15 05:28:08;;;;;;;5.10;1.77;;;9.10;43.60;;;;;;5002260;28;46480;-82
2023/10/15 05:30:34;;;;;;;10.07;2.93;;;9.10;44.70;;;;;;5002711;28;47207;-82
2023/10/15 05:33:04;;;;;;;4.83;2.00;;;9.10;44.80;;;;;;5001573;28;46569;-83
2023/10/15 05:35:30;;;;;;;7.80;2.30;;;9.10;44.80;;;;;;5004387;28;45843;-83
2023/10/15 05:37:55;;;;;;;5.67;2.10;;;9.10;44.90;;;;;;5004100;28;46467;-82
2023/10/15 05:40:24;;;;;;;8.30;2.00;;;9.00;45.00;;;;;;5003142;28;48570;-82
2023/10/15 05:42:51;;;;;;;13.10;2.30;;;9.00;45.30;;;;;;5001825;28;46734;-84
2023/10/15 05:45:17;;;;;;;6.60;2.00;;;9.00;45.30;;;;;;5000932;28;46425;-82
2023/10/15 05:47:43;;;;;;;15.13;3.13;;;9.00;45.20;;;;;;5006010;28;47023;-83
2023/10/15 05:50:09;;;;;;;10.13;1.87;;;9.00;45.40;;;;;;5006402;28;46990;-83
2023/10/15 05:52:35;;;;;;;5.47;1.90;;;9.00;45.50;;;;;;5003916;28;46770;-83
2023/10/15 05:55:01;;;;;;;9.37;3.13;;;9.00;45.50;;;;;;5006827;28;46569;-83
2023/10/15 05:57:28;;;;;;;10.80;5.33;;;9.00;45.40;;;;;;5004155;28;47347;-82
2023/10/15 05:59:56;;;;;;;21.17;15.73;;;9.20;45.50;;;;;;5007020;28;46530;-82
2023/10/15 06:02:22;;;;;;;12.50;7.43;;;9.10;45.40;;;;;;5006431;28;46437;-83
2023/10/15 06:04:48;;;;;;;12.97;4.67;;;9.10;45.10;;;;;;5004696;28;46524;-83
2023/10/15 06:07:15;;;;;;;12.33;2.90;;;9.10;45.30;;;;;;5007571;28;46350;-82
2023/10/15 06:09:41;;;;;;;14.60;3.00;;;9.10;45.30;;;;;;5002768;28;46979;-81
2023/10/15 06:12:06;;;;;;;9.53;3.13;;;9.20;45.20;;;;;;5001528;28;46402;-81
2023/10/15 06:14:33;;;;;;;16.40;5.33;;;9.20;45.20;;;;;;5002369;28;46040;-82
2023/10/15 06:16:59;;;;;;;6.60;3.07;;;9.20;45.10;;;;;;5001303;28;46508;-83
2023/10/15 06:19:31;;;;;;;4.93;2.10;;;9.30;45.30;;;;;;4999614;28;46593;-80
2023/10/15 06:21:56;;;;;;;6.00;2.30;;;9.30;45.00;;;;;;4999285;28;46418;-80
2023/10/15 06:24:23;;;;;;;11.73;5.13;;;9.40;45.00;;;;;;5002478;28;46311;-81
2023/10/15 06:26:49;;;;;;;29.87;11.70;;;9.40;44.90;;;;;;4999550;28;46494;-81
2023/10/15 06:29:15;;;;;;;23.70;8.40;;;9.50;44.90;;;;;;5000029;28;49031;-81
2023/10/15 06:31:41;;;;;;;9.97;3.10;;;9.50;46.10;;;;;;4999908;28;46542;-80
2023/10/15 06:34:07;;;;;;;17.80;5.40;;;9.60;44.90;;;;;;5002034;28;46712;-80
2023/10/15 06:36:33;;;;;;;14.47;6.17;;;9.70;44.70;;;;;;5001006;28;46917;-79
2023/10/15 06:39:00;;;;;;;36.43;20.57;;;9.80;44.40;;;;;;5002221;28;46662;-79
2023/10/15 06:41:26;;;;;;;16.73;8.70;;;9.90;44.40;;;;;;5001220;28;46443;-81
2023/10/15 06:43:51;;;;;;;14.10;6.10;;;9.90;44.00;;;;;;5001557;28;46699;-80
2023/10/15 06:46:17;;;;;;;10.07;2.43;;;9.90;44.00;;;;;;5001714;28;46666;-83
2023/10/15 06:48:43;;;;;;;14.60;2.50;;;10.00;43.30;;;;;;5001046;28;46460;-81
2023/10/15 06:51:09;;;;;;;5.90;3.53;;;10.10;43.10;;;;;;5000055;28;46510;-81
2023/10/15 06:53:35;;;;;;;7.73;2.33;;;10.10;42.80;;;;;;5001284;28;46746;-80
2023/10/15 06:56:01;;;;;;;7.67;1.87;;;10.20;43.10;;;;;;5004603;28;46973;-81
2023/10/15 06:58:28;;;;;;;10.83;4.40;;;10.20;43.00;;;;;;5003433;28;47342;-80
2023/10/15 07:00:58;;;;;;;8.13;3.70;;;10.30;42.70;;;;;;5002440;28;46498;-81
2023/10/15 07:03:24;;;;;;;15.30;5.17;;;10.40;42.70;;;;;;5003069;28;46999;-80
2023/10/15 07:05:50;;;;;;;5.27;2.63;;;10.50;42.70;;;;;;5002029;28;46750;-82
2023/10/15 07:08:16;;;;;;;6.47;1.83;;;10.50;42.60;;;;;;5002570;28;47972;-77
2023/10/15 07:10:42;;;;;;;5.57;1.87;;;10.50;42.50;;;;;;5003404;28;46512;-81
2023/10/15 07:13:08;;;;;;;6.30;2.60;;;10.60;42.20;;;;;;5003750;28;46650;-83
2023/10/15 07:15:37;;;;;;;3.87;1.90;;;10.70;41.90;;;;;;4998852;28;46930;-80
2023/10/15 07:18:04;;;;;;;6.87;1.93;;;10.80;41.70;;;;;;5002171;28;46943;-80
2023/10/15 07:20:29;;;;;;;8.13;2.27;;;10.90;41.40;;;;;;5001330;28;46567;-82
2023/10/15 07:22:56;;;;;;;10.27;2.13;;;11.00;41.10;;;;;;5001064;28;46126;-81
2023/10/15 07:25:29;;;;;;;4.83;1.80;;;11.00;40.90;;;;;;5001538;28;46780;-81
2023/10/15 07:27:56;;;;;;;7.40;2.10;;;11.20;40.70;;;;;;5000384;28;48160;-82
2023/10/15 07:30:22;;;;;;;13.90;4.87;;;11.20;40.40;;;;;;4999442;28;46635;-81
2023/10/15 07:32:58;;;;;;;15.50;9.90;;;11.50;40.30;;;;;;5002312;28;46722;-83
2023/10/15 07:35:29;;;;;;;7.10;3.03;;;11.40;40.00;;;;;;5000090;28;45949;-81
2023/10/15 07:37:56;;;;;;;4.87;2.00;;;11.50;39.80;;;;;;5000707;28;47263;-81
2023/10/15 07:40:23;;;;;;;5.10;2.03;;;11.70;40.00;;;;;;5000254;28;46781;-80
2023/10/15 07:42:52;;;;;;;5.13;2.13;;;11.60;39.90;;;;;;5001070;28;46569;-81
2023/10/15 07:45:19;;;;;;;4.70;1.80;;;11.60;39.90;;;;;;5000616;28;46622;-79
2023/10/15 07:47:45;;;;;;;4.67;2.30;;;11.60;39.90;;;;;;5000994;28;46630;-80
2023/10/15 07:50:17;;;;;;;5.23;2.13;;;11.50;39.80;;;;;;5000534;28;46718;-79
2023/10/15 07:52:44;;;;;;;3.20;1.60;;;11.50;39.90;;;;;;4998544;28;46495;-81
2023/10/15 07:55:10;;;;;;;5.43;2.20;;;11.50;39.80;;;;;;4998447;28;46422;-82
2023/10/15 07:57:37;;;;;;;5.20;1.93;;;11.50;39.80;;;;;;5001597;28;46957;-80
2023/10/15 08:00:05;;;;;;;5.87;1.63;;;11.30;40.50;;;;;;5001424;28;46373;-80
2023/10/15 08:02:31;;;;;;;4.33;1.63;;;11.00;41.90;;;;;;5005202;28;46968;-79
2023/10/15 08:04:56;;;;;;;4.07;0.97;;;10.40;44.50;;;;;;5003670;28;46459;-80
2023/10/15 08:07:23;;;;;;;6.47;1.03;;;9.60;47.70;;;;;;4999991;28;46167;-82
2023/10/15 08:09:52;;;;;;;1.90;0.87;;;9.20;49.10;;;;;;4991372;28;46927;-77
2023/10/15 08:12:17;;;;;;;5.60;1.10;;;9.10;49.10;;;;;;4995933;28;46475;-81
2023/10/15 08:14:44;;;;;;;4.67;1.20;;;9.10;48.60;;;;;;5003018;28;46865;-82
2023/10/15 08:17:11;;;;;;;7.00;1.10;;;9.10;49.10;;;;;;5003189;28;46719;-78
2023/10/15 08:19:37;;;;;;;3.30;1.30;;;9.10;49.40;;;;;;4997560;28;46498;-81
2023/10/15 08:22:03;;;;;;;7.40;1.10;;;9.20;50.00;;;;;;5001660;28;45931;-80
2023/10/15 08:24:28;;;;;;;3.50;1.10;;;9.20;49.90;;;;;;5000809;28;46467;-78
2023/10/15 08:26:54;;;;;;;3.07;1.00;;;9.40;49.90;;;;;;5001627;28;46507;-79
2023/10/15 08:29:20;;;;;;;2.30;0.87;;;9.60;49.30;;;;;;4999907;28;45889;-79
2023/10/15 08:31:46;;;;;;;4.23;1.20;;;9.70;48.90;;;;;;5001840;28;45981;-79
2023/10/15 08:34:12;;;;;;;3.77;1.20;;;9.80;49.10;;;;;;5000470;28;46518;-79
2023/10/15 08:36:38;;;;;;;3.03;1.10;;;9.80;49.10;;;;;;5001995;28;47274;-80
2023/10/15 08:39:06;;;;;;;2.77;1.37;;;9.80;49.70;;;;;;5001938;28;46598;-81
2023/10/15 08:41:37;;;;;;;6.17;1.67;;;10.00;50.20;;;;;;5001838;28;46725;-78
2023/10/15 08:44:06;;;;;;;2.60;1.27;;;10.10;48.40;;;;;;5002840;28;46344;-81
2023/10/15 08:46:33;;;;;;;4.63;1.37;;;10.40;47.40;;;;;;5003494;28;46704;-80
2023/10/15 08:49:00;;;;;;;3.10;1.57;;;10.60;46.70;;;;;;5003575;28;45920;-80
2023/10/15 08:51:26;;;;;;;4.60;1.30;;;10.60;46.10;;;;;;5004439;28;47014;-79
2023/10/15 08:53:53;;;;;;;6.00;1.30;;;10.80;45.50;;;;;;5008077;28;46930;-80
2023/10/15 08:56:21;;;;;;;3.20;1.60;;;10.80;45.20;;;;;;5009567;28;46334;-81
2023/10/15 08:58:52;;;;;;;2.60;1.47;;;10.80;45.30;;;;;;5010261;28;46823;-80
2023/10/15 09:01:21;;;;;;;3.03;1.10;;;10.80;44.90;;;;;;5013254;28;46618;-79
2023/10/15 09:03:47;;;;;;;2.10;0.80;;;10.80;45.00;;;;;;5011884;28;46749;-80
2023/10/15 09:06:16;;;;;;;2.70;1.00;;;10.90;44.70;;;;;;5003303;28;47780;-79
2023/10/15 09:08:42;;;;;;;2.13;1.00;;;11.00;44.50;;;;;;5005206;28;46563;-79
2023/10/15 09:11:10;;;;;;;3.73;1.20;;;11.00;44.20;;;;;;4993817;28;46505;-83
2023/10/15 09:13:36;;;;;;;2.70;1.10;;;11.00;44.10;;;;;;5004260;28;46307;-81
2023/10/15 09:16:04;;;;;;;2.63;0.93;;;10.90;44.20;;;;;;5005165;28;46690;-81
2023/10/15 09:18:35;;;;;;;2.20;0.90;;;10.80;44.30;;;;;;5004125;28;46435;-81
2023/10/15 09:21:05;;;;;;;3.70;1.07;;;10.90;44.20;;;;;;5003843;28;46746;-82
2023/10/15 09:23:36;;;;;;;3.90;1.17;;;11.00;44.30;;;;;;5006793;28;46412;-81
2023/10/15 09:26:04;;;;;;;3.60;1.03;;;11.00;44.10;;;;;;5006091;28;48183;-82
2023/10/15 09:28:30;;;;;;;4.43;1.30;;;11.10;43.80;;;;;;5008205;28;46539;-82
2023/10/15 09:31:11;;;;;;;3.13;0.97;;;11.10;43.70;;;;;;5004792;28;45890;-84
2023/10/15 09:33:38;;;;;;;5.53;1.40;;;11.20;43.10;;;;;;5004843;28;46411;-81
2023/10/15 09:36:05;;;;;;;14.03;5.23;;;11.40;42.40;;;;;;5003446;28;48341;-81
2023/10/15 09:38:32;;;;;;;5.93;2.23;;;11.50;42.20;;;;;;5006003;28;46487;-79
2023/10/15 09:41:01;;;;;;;5.60;1.73;;;11.60;41.70;;;;;;5007513;28;45923;-82
2023/10/15 09:43:35;;;;;;;3.80;1.20;;;11.60;41.70;;;;;;5003763;28;46529;-84
2023/10/15 09:46:03;;;;;;;4.10;1.40;;;11.70;41.30;;;;;;5004621;28;46391;-80
2023/10/15 09:48:29;;;;;;;6.53;1.40;;;11.90;40.90;;;;;;5001974;28;46592;-82
2023/10/15 09:50:59;;;;;;;3.97;1.80;;;12.20;40.50;;;;;;5003267;28;46979;-81
2023/10/15 09:53:28;;;;;;;5.03;1.20;;;12.20;40.50;;;;;;5003145;28;45833;-79
2023/10/15 09:55:57;;;;;;;6.00;1.40;;;12.70;40.00;;;;;;5017494;28;48572;-79
2023/10/15 09:58:24;;;;;;;12.10;2.10;;;12.80;39.20;;;;;;5004935;28;46907;-79
2023/10/15 10:03:32;;;;;;;6.20;1.50;;;13.30;38.40;;;;;;5001690;28;47569;-78
2023/10/15 10:06:12;;;;;;;8.97;1.83;;;13.30;37.80;;;;;;5002823;28;47162;-82
2023/10/15 10:09:24;;;;;;;6.63;1.83;;;13.10;37.80;;;;;;5003475;28;46545;-80
2023/10/15 10:12:11;;;;;;;4.10;1.30;;;12.70;37.90;;;;;;5005428;28;45796;-81
2023/10/15 10:14:55;;;;;;;6.40;1.80;;;12.50;38.40;;;;;;5005081;28;45851;-80
2023/10/15 10:17:22;;;;;;;5.10;2.20;;;12.40;38.30;;;;;;4995259;28;48028;-79
2023/10/15 10:19:52;;;;;;;9.93;1.80;;;12.30;38.60;;;;;;5000352;28;47298;-81
2023/10/15 10:22:27;;;;;;;7.43;1.97;;;12.10;38.80;;;;;;5016975;28;46590;-80
2023/10/15 10:24:54;;;;;;;4.97;1.70;;;11.90;39.20;;;;;;4999946;28;46482;-82
2023/10/15 10:27:20;;;;;;;8.17;2.00;;;11.60;39.00;;;;;;5001033;28;46397;-79
2023/10/15 10:29:52;;;;;;;9.17;2.03;;;11.50;39.80;;;;;;5005410;28;46370;-82
2023/10/15 10:32:20;;;;;;;10.57;1.70;;;11.40;39.70;;;;;;5003290;28;46574;-79
2023/10/15 10:34:56;;;;;;;9.10;1.80;;;11.50;39.70;;;;;;5002355;28;46469;-81
2023/10/15 10:37:23;;;;;;;5.33;1.97;;;11.40;39.70;;;;;;4999662;28;46459;-80
2023/10/15 10:39:49;;;;;;;8.97;2.10;;;11.20;39.50;;;;;;5000462;28;46424;-81
2023/10/15 10:42:23;;;;;;;7.33;1.67;;;11.00;37.10;;;;;;4998984;28;45967;-80
2023/10/15 10:44:49;;;;;;;5.60;1.80;;;10.50;37.50;;;;;;4997233;28;46032;-80
2023/10/15 10:47:28;;;;;;;5.07;1.80;;;10.10;37.90;;;;;;5004051;28;46624;-80
2023/10/15 10:50:00;;;;;;;5.70;2.13;;;10.00;38.40;;;;;;5001098;28;46842;-84
2023/10/15 10:52:35;;;;;;;6.30;1.63;;;9.90;39.30;;;;;;4996143;28;46746;-78
2023/10/15 10:55:31;;;;;;;4.07;2.00;;;9.80;39.20;;;;;;5000282;28;47508;-79
2023/10/15 10:58:00;;;;;;;6.10;1.50;;;9.90;39.30;;;;;;5000955;28;46021;-80
2023/10/15 11:00:30;;;;;;;4.80;1.80;;;9.90;39.00;;;;;;4998914;28;46554;-78
2023/10/15 11:02:58;;;;;;;3.70;1.37;;;10.00;37.40;;;;;;5000363;28;46526;-79
2023/10/15 11:05:24;;;;;;;4.63;1.40;;;10.10;37.20;;;;;;4999776;28;46853;-78
2023/10/15 11:07:49;;;;;;;9.83;1.40;;;10.20;37.20;;;;;;4999913;28;47432;-78
2023/10/15 11:10:17;;;;;;;5.90;1.30;;;10.20;36.70;;;;;;4998948;28;46756;-79
2023/10/15 11:12:46;;;;;;;5.60;1.60;;;10.20;36.50;;;;;;5000531;28;46423;-79
2023/10/15 11:15:14;;;;;;;7.60;1.80;;;10.20;36.20;;;;;;4999502;28;46738;-79
2023/10/15 11:17:54;;;;;;;6.20;1.43;;;10.20;36.00;;;;;;4999467;28;46999;-79
2023/10/15 11:20:20;;;;;;;5.23;1.57;;;10.30;35.80;;;;;;5000198;28;46457;-80
2023/10/15 11:22:51;;;;;;;2.77;1.53;;;10.30;35.70;;;;;;5001192;28;46654;-79
2023/10/15 11:25:17;;;;;;;7.73;2.40;;;10.40;35.60;;;;;;5000990;28;46780;-79
2023/10/15 11:27:43;;;;;;;6.40;1.77;;;10.50;35.20;;;;;;5000290;28;46518;-79
2023/10/15 11:30:09;;;;;;;6.27;1.80;;;10.50;35.40;;;;;;4999658;28;46845;-81
2023/10/15 11:32:35;;;;;;;3.50;1.43;;;10.60;35.30;;;;;;4991342;28;46461;-81
2023/10/15 11:35:06;;;;;;;8.30;1.67;;;10.70;35.20;;;;;;5000322;28;46442;-78
2023/10/15 11:37:32;;;;;;;6.17;1.70;;;10.80;35.80;;;;;;4997646;28;48202;-84
2023/10/15 11:39:58;;;;;;;6.40;1.87;;;10.70;35.20;;;;;;4999416;28;46617;-83
2023/10/15 11:42:28;;;;;;;6.93;1.90;;;10.70;35.50;;;;;;4997059;28;46965;-81
2023/10/15 11:44:56;;;;;;;8.70;1.77;;;10.70;35.40;;;;;;5000191;28;46573;-79
2023/10/15 11:47:26;;;;;;;6.80;2.10;;;10.80;35.50;;;;;;5000271;28;46737;-80
2023/10/15 11:49:54;;;;;;;8.40;2.20;;;11.00;33.90;;;;;;5001214;28;46471;-80
2023/10/15 11:52:22;;;;;;;4.80;1.83;;;11.00;35.00;;;;;;4998489;28;46402;-82
2023/10/15 11:54:50;;;;;;;5.20;1.70;;;11.20;34.70;;;;;;4999593;28;46436;-81
2023/10/15 11:57:24;;;;;;;8.60;1.77;;;11.30;34.10;;;;;;5000094;28;49389;-81
2023/10/15 11:59:50;;;;;;;2.80;1.60;;;11.40;34.20;;;;;;4999245;28;46502;-81
2023/10/15 12:02:16;;;;;;;9.60;2.40;;;11.50;33.80;;;;;;4999037;28;46839;-83
2023/10/15 12:04:42;;;;;;;6.50;1.70;;;11.60;33.80;;;;;;4997212;28;46433;-82
2023/10/15 12:07:16;;;;;;;5.27;1.80;;;11.80;33.80;;;;;;5002258;28;47170;-81
2023/10/15 12:09:44;;;;;;;6.60;1.77;;;11.80;33.60;;;;;;4998490;28;46347;-81
2023/10/15 12:12:11;;;;;;;9.63;1.80;;;12.00;33.30;;;;;;5001453;28;46447;-83
2023/10/15 12:14:37;;;;;;;9.60;2.30;;;12.10;33.20;;;;;;4996715;28;46630;-83
2023/10/15 12:17:04;;;;;;;10.03;2.00;;;12.30;33.10;;;;;;4999222;28;46839;-81
2023/10/15 12:19:30;;;;;;;4.03;2.00;;;12.20;32.80;;;;;;5000714;28;47224;-80
2023/10/15 12:21:58;;;;;;;3.90;1.57;;;11.90;33.00;;;;;;4998782;28;46454;-81
2023/10/15 12:24:24;;;;;;;6.83;2.00;;;11.80;33.50;;;;;;5000030;28;46455;-82
2023/10/15 12:26:49;;;;;;;5.17;1.57;;;10.60;32.50;;;;;;4998975;28;46462;-81
2023/10/15 12:29:17;;;;;;;4.63;1.60;;;10.30;34.40;;;;;;5003514;28;47404;-81
2023/10/15 12:31:43;;;;;;;3.67;1.33;;;8.60;41.20;;;;;;5005331;28;47894;-81
2023/10/15 12:34:12;;;;;;;3.70;1.23;;;7.70;44.70;;;;;;5003374;28;46403;-83
2023/10/15 12:36:38;;;;;;;3.93;1.50;;;7.40;45.10;;;;;;5002688;28;48362;-80
2023/10/15 12:39:08;;;;;;;3.20;1.30;;;7.40;46.10;;;;;;5007601;28;46424;-81
2023/10/15 12:41:38;;;;;;;3.77;1.17;;;7.60;46.90;;;;;;4996357;28;46460;-81
2023/10/15 12:44:10;;;;;;;4.70;1.30;;;7.80;44.40;;;;;;4999591;28;46610;-81
2023/10/15 12:46:36;;;;;;;3.07;1.30;;;8.50;41.80;;;;;;4998174;28;46633;-79
2023/10/15 12:49:03;;;;;;;2.43;1.13;;;8.50;42.90;;;;;;4997779;28;46369;-83
2023/10/15 12:51:29;;;;;;;6.93;1.20;;;8.80;42.10;;;;;;4998924;28;46427;-83
2023/10/15 12:53:56;;;;;;;5.63;1.50;;;8.90;43.40;;;;;;4987262;28;46409;-82
2023/10/15 12:56:22;;;;;;;3.23;1.10;;;8.90;43.50;;;;;;4996886;28;46453;-77
2023/10/15 12:58:49;;;;;;;3.27;1.13;;;9.00;44.10;;;;;;4995250;28;46493;-78
2023/10/15 13:01:19;;;;;;;4.33;1.23;;;9.10;44.60;;;;;;4997999;28;46742;-79
2023/10/15 13:03:49;;;;;;;5.03;1.37;;;9.20;44.90;;;;;;4997643;28;46623;-79
2023/10/15 13:06:19;;;;;;;2.57;1.20;;;9.40;45.60;;;;;;4987806;28;49292;-79
2023/10/15 13:08:46;;;;;;;2.70;1.20;;;9.50;44.90;;;;;;4998173;28;46387;-78
2023/10/15 13:11:12;;;;;;;6.27;1.30;;;9.60;45.60;;;;;;4999041;28;45831;-81
2023/10/15 13:13:41;;;;;;;1.90;1.00;;;9.70;45.40;;;;;;5000468;28;46495;-77
2023/10/15 13:16:08;;;;;;;3.37;0.93;;;9.80;45.50;;;;;;5001467;28;47161;-80
2023/10/15 13:18:38;;;;;;;2.20;1.13;;;9.80;44.20;;;;;;4996622;28;46372;-84